Time;durP1;ratioP1;P1;durP2;ratioP2;P2;SDS_P1;SDS_P2;PMS_P1;PMS_P2;Temp;Humidity;BMP_temperature;BMP_pressure;BME280_temperature;BME280_humidity;BME280_pressure;Samples;Min_cycle;Max_cycle;Signal;HPM_P1;HPM_P2
2022/10/10 00:01:54;;;;;;;7.53;5.32;;;;;;;;;;4960301;28;20046;-94
2022/10/10 00:04:20;;;;;;;9.35;5.20;;;;;;;;;;4962566;28;20034;-94
2022/10/10 00:06:46;;;;;;;11.65;4.68;;;;;;;;;;4976802;28;20077;-94
2022/10/10 00:09:12;;;;;;;11.85;5.40;;;;;;;;;;4959912;28;20038;-94
2022/10/10 00:11:38;;;;;;;7.05;4.70;;;;;;;;;;4975090;28;20042;-93
2022/10/10 00:14:04;;;;;;;8.30;4.45;;;;;;;;;;4979302;28;20042;-94
2022/10/10 00:16:30;;;;;;;9.52;5.38;;;;;;;;;;4975566;28;20360;-94
2022/10/10 00:18:56;;;;;;;8.25;5.25;;;;;;;;;;4977982;28;20033;-94
2022/10/10 00:21:22;;;;;;;9.70;5.13;;;;;;;;;;4959975;28;20035;-94
2022/10/10 00:23:49;;;;;;;18.33;5.13;;;;;;;;;;4975837;28;20026;-94
2022/10/10 00:26:15;;;;;;;7.97;4.75;;;;;;;;;;4973049;28;20026;-95
2022/10/10 00:28:41;;;;;;;8.30;4.75;;;;;;;;;;4951235;28;20030;-93
2022/10/10 00:31:08;;;;;;;7.28;4.60;;;;;;;;;;4976611;28;20271;-94
2022/10/10 00:33:34;;;;;;;8.70;5.18;;;;;;;;;;4962298;28;20117;-94
2022/10/10 00:36:00;;;;;;;9.90;4.90;;;;;;;;;;4955161;28;20038;-94
2022/10/10 00:38:26;;;;;;;19.25;5.60;;;;;;;;;;4970398;28;20521;-94
2022/10/10 00:40:54;;;;;;;9.98;5.30;;;;;;;;;;4960181;28;20034;-94
2022/10/10 00:43:28;;;;;;;10.65;4.75;;;;;;;;;;4983356;28;20042;-94
2022/10/10 00:45:54;;;;;;;11.13;4.63;;;;;;;;;;4969410;28;20153;-94
2022/10/10 00:48:30;;;;;;;8.95;4.13;;;;;;;;;;4951004;28;20402;-95
2022/10/10 00:51:02;;;;;;;10.77;4.20;;;;;;;;;;4966486;28;20037;-93
2022/10/10 00:53:48;;;;;;;13.65;4.20;;;;;;;;;;4969456;28;20034;-94
2022/10/10 00:56:24;;;;;;;12.95;4.30;;;;;;;;;;4971011;28;20415;-94
2022/10/10 00:58:52;;;;;;;12.60;5.00;;;;;;;;;;4971883;28;20620;-94
2022/10/10 01:01:24;;;;;;;8.65;5.18;;;;;;;;;;4971704;28;20113;-94
2022/10/10 01:03:50;;;;;;;12.52;4.50;;;;;;;;;;4951912;28;20526;-93
2022/10/10 01:06:17;;;;;;;7.78;4.78;;;;;;;;;;4968714;28;20041;-94
2022/10/10 01:08:43;;;;;;;15.75;5.13;;;;;;;;;;4963103;28;20026;-94
2022/10/10 01:11:21;;;;;;;12.32;4.70;;;;;;;;;;4954104;28;20497;-94
2022/10/10 01:13:55;;;;;;;13.60;5.50;;;;;;;;;;4966288;28;20319;-94
2022/10/10 01:16:21;;;;;;;10.57;4.93;;;;;;;;;;4972556;28;20035;-94
2022/10/10 01:19:05;;;;;;;10.20;5.10;;;;;;;;;;4969699;28;20026;-95
2022/10/10 01:21:50;;;;;;;9.77;4.85;;;;;;;;;;4978200;28;20034;-94
2022/10/10 01:24:35;;;;;;;16.25;5.53;;;;;;;;;;4970920;28;20475;-94
2022/10/10 01:27:08;;;;;;;12.65;5.38;;;;;;;;;;4984892;28;20030;-94
2022/10/10 01:29:34;;;;;;;15.10;5.10;;;;;;;;;;4965754;28;20554;-94
2022/10/10 01:32:08;;;;;;;17.05;5.05;;;;;;;;;;4971638;28;20122;-93
2022/10/10 01:34:40;;;;;;;12.80;5.32;;;;;;;;;;4982562;28;20128;-95
2022/10/10 01:37:06;;;;;;;8.80;5.00;;;;;;;;;;4970833;28;20465;-94
2022/10/10 01:39:36;;;;;;;13.38;4.78;;;;;;;;;;4969963;28;20053;-94
2022/10/10 01:42:19;;;;;;;10.80;5.32;;;;;;;;;;4983359;28;20027;-93
2022/10/10 01:44:46;;;;;;;11.77;5.30;;;;;;;;;;4967075;28;20054;-94
2022/10/10 01:47:12;;;;;;;11.73;5.07;;;;;;;;;;4972403;28;20552;-94
2022/10/10 01:49:39;;;;;;;9.27;5.68;;;;;;;;;;4966643;28;20037;-94
2022/10/10 01:52:08;;;;;;;10.35;5.50;;;;;;;;;;4952701;28;20040;-94
2022/10/10 01:54:34;;;;;;;13.43;4.95;;;;;;;;;;4986853;28;20047;-94
2022/10/10 01:57:06;;;;;;;7.40;4.43;;;;;;;;;;4973360;28;20086;-94
2022/10/10 01:59:32;;;;;;;14.63;5.50;;;;;;;;;;4970982;28;20023;-94
2022/10/10 02:02:08;;;;;;;12.10;5.35;;;;;;;;;;4985717;28;20121;-93
2022/10/10 02:04:38;;;;;;;8.63;5.10;;;;;;;;;;4984651;28;20030;-94
2022/10/10 02:07:10;;;;;;;14.20;5.25;;;;;;;;;;4972224;28;20049;-94
2022/10/10 02:09:41;;;;;;;13.38;4.72;;;;;;;;;;4982333;28;20034;-94
2022/10/10 02:12:09;;;;;;;12.05;5.13;;;;;;;;;;4975588;28;20027;-94
2022/10/10 02:14:43;;;;;;;11.90;5.78;;;;;;;;;;4968220;28;20587;-93
2022/10/10 02:17:10;;;;;;;14.82;5.18;;;;;;;;;;4966050;28;20026;-94
2022/10/10 02:19:38;;;;;;;12.70;5.38;;;;;;;;;;4967742;28;20061;-94
2022/10/10 02:22:04;;;;;;;9.40;5.53;;;;;;;;;;4975840;28;20073;-94
2022/10/10 02:24:30;;;;;;;11.35;4.70;;;;;;;;;;4970636;28;20239;-94
2022/10/10 02:27:01;;;;;;;8.95;4.57;;;;;;;;;;4962976;28;20470;-94
2022/10/10 02:29:30;;;;;;;11.23;5.13;;;;;;;;;;4970662;28;20743;-94
2022/10/10 02:32:04;;;;;;;12.52;5.10;;;;;;;;;;4975789;28;20129;-94
2022/10/10 02:34:33;;;;;;;11.88;5.03;;;;;;;;;;4971003;28;20022;-94
2022/10/10 02:37:01;;;;;;;12.82;5.85;;;;;;;;;;4969954;28;20026;-94
2022/10/10 02:39:29;;;;;;;9.38;5.22;;;;;;;;;;4972142;28;20026;-94
2022/10/10 02:41:55;;;;;;;7.55;4.88;;;;;;;;;;4971339;28;20062;-94
2022/10/10 02:44:21;;;;;;;9.57;5.22;;;;;;;;;;4976995;28;20471;-94
2022/10/10 02:46:47;;;;;;;9.15;4.65;;;;;;;;;;4974963;28;20070;-94
2022/10/10 02:49:14;;;;;;;10.15;5.20;;;;;;;;;;4953954;28;20034;-94
2022/10/10 02:51:40;;;;;;;11.45;5.70;;;;;;;;;;4950029;28;20031;-94
2022/10/10 02:54:06;;;;;;;13.80;5.63;;;;;;;;;;4959305;28;20053;-94
2022/10/10 02:56:33;;;;;;;9.30;5.00;;;;;;;;;;4972503;28;20059;-93
2022/10/10 02:58:59;;;;;;;8.73;4.95;;;;;;;;;;4975459;28;20094;-95
2022/10/10 03:01:25;;;;;;;13.93;5.72;;;;;;;;;;4960141;28;20132;-93
2022/10/10 03:03:51;;;;;;;14.77;5.70;;;;;;;;;;4956918;28;20053;-94
2022/10/10 03:06:17;;;;;;;9.07;4.97;;;;;;;;;;4973132;28;20038;-95
2022/10/10 03:08:43;;;;;;;13.75;5.55;;;;;;;;;;4957917;28;20045;-94
2022/10/10 03:11:09;;;;;;;7.25;4.63;;;;;;;;;;4959579;28;20284;-94
2022/10/10 03:13:35;;;;;;;8.90;5.35;;;;;;;;;;4961455;28;20058;-94
2022/10/10 03:16:02;;;;;;;9.88;4.95;;;;;;;;;;4972834;28;20038;-94
2022/10/10 03:18:28;;;;;;;10.60;5.10;;;;;;;;;;4972278;28;20110;-94
2022/10/10 03:20:55;;;;;;;9.05;4.72;;;;;;;;;;4954010;28;20034;-94
2022/10/10 03:23:22;;;;;;;11.35;4.95;;;;;;;;;;4971152;28;20035;-94
2022/10/10 03:25:48;;;;;;;9.52;4.72;;;;;;;;;;4970810;28;20091;-94
2022/10/10 03:28:14;;;;;;;9.85;4.88;;;;;;;;;;4954735;28;20129;-94
2022/10/10 03:30:41;;;;;;;8.68;4.95;;;;;;;;;;4972087;28;20027;-94
2022/10/10 03:33:07;;;;;;;9.80;5.20;;;;;;;;;;4967202;28;20371;-94
2022/10/10 03:35:33;;;;;;;13.30;5.38;;;;;;;;;;4969686;28;20030;-94
2022/10/10 03:38:00;;;;;;;9.27;5.22;;;;;;;;;;4970111;28;20117;-94
2022/10/10 03:40:27;;;;;;;10.77;4.90;;;;;;;;;;4968955;28;20038;-93
2022/10/10 03:42:53;;;;;;;12.10;5.93;;;;;;;;;;4963755;28;20502;-94
2022/10/10 03:45:19;;;;;;;9.63;5.35;;;;;;;;;;4974009;28;20054;-93
2022/10/10 03:47:46;;;;;;;15.88;6.75;;;;;;;;;;4970114;28;20046;-94
2022/10/10 03:50:12;;;;;;;11.27;5.35;;;;;;;;;;4968620;28;20045;-94
2022/10/10 03:52:38;;;;;;;11.15;5.47;;;;;;;;;;4955729;28;20077;-94
2022/10/10 03:55:05;;;;;;;9.40;5.32;;;;;;;;;;4970907;28;20027;-93
2022/10/10 03:57:31;;;;;;;12.40;5.63;;;;;;;;;;4971367;28;20038;-94
2022/10/10 03:59:57;;;;;;;15.18;5.93;;;;;;;;;;4953926;28;20441;-94
2022/10/10 04:02:23;;;;;;;17.45;5.25;;;;;;;;;;4943447;28;20047;-93
2022/10/10 04:04:49;;;;;;;13.65;5.57;;;;;;;;;;4947044;28;20073;-94
2022/10/10 04:07:15;;;;;;;7.43;4.85;;;;;;;;;;4935039;28;20406;-93
2022/10/10 04:09:41;;;;;;;11.00;5.95;;;;;;;;;;4934220;28;20035;-93
2022/10/10 04:12:07;;;;;;;10.82;5.65;;;;;;;;;;4952525;28;20031;-94
2022/10/10 04:14:33;;;;;;;14.05;6.10;;;;;;;;;;4950183;28;20036;-94
2022/10/10 04:17:01;;;;;;;15.40;5.45;;;;;;;;;;4965674;28;20034;-94
2022/10/10 04:19:27;;;;;;;15.75;6.32;;;;;;;;;;4953568;28;20510;-94
2022/10/10 04:21:53;;;;;;;13.40;6.00;;;;;;;;;;4947372;28;20372;-94
2022/10/10 04:24:19;;;;;;;12.48;5.60;;;;;;;;;;4939835;28;20499;-94
2022/10/10 04:26:45;;;;;;;12.80;6.28;;;;;;;;;;4950152;28;20074;-94
2022/10/10 04:29:11;;;;;;;17.08;6.68;;;;;;;;;;4936308;28;20469;-94
2022/10/10 04:31:37;;;;;;;13.85;6.50;;;;;;;;;;4952634;28;20035;-93
2022/10/10 04:34:04;;;;;;;12.60;6.05;;;;;;;;;;4950513;28;20088;-94
2022/10/10 04:36:30;;;;;;;12.77;6.05;;;;;;;;;;4950257;28;20490;-94
2022/10/10 04:38:58;;;;;;;23.65;6.32;;;;;;;;;;4948197;28;20027;-95
2022/10/10 04:41:24;;;;;;;13.98;6.88;;;;;;;;;;4933307;28;20023;-94
2022/10/10 04:43:50;;;;;;;13.65;6.25;;;;;;;;;;4945925;28;20433;-94
2022/10/10 04:46:16;;;;;;;13.48;6.43;;;;;;;;;;4951825;28;20030;-94
2022/10/10 04:48:42;;;;;;;12.63;6.30;;;;;;;;;;4947359;28;20043;-94
2022/10/10 04:51:09;;;;;;;14.90;7.03;;;;;;;;;;4943807;28;20028;-95
2022/10/10 04:53:38;;;;;;;14.40;7.10;;;;;;;;;;4952757;28;20140;-94
2022/10/10 04:56:04;;;;;;;11.55;6.25;;;;;;;;;;4950754;28;20034;-94
2022/10/10 04:58:30;;;;;;;12.13;5.78;;;;;;;;;;4952582;28;20042;-93
2022/10/10 05:00:56;;;;;;;11.93;6.80;;;;;;;;;;4952664;28;20467;-94
2022/10/10 05:03:23;;;;;;;13.95;6.38;;;;;;;;;;4971810;28;20438;-94
2022/10/10 05:05:49;;;;;;;11.40;6.05;;;;;;;;;;4973646;28;20514;-94
2022/10/10 05:08:15;;;;;;;13.68;7.18;;;;;;;;;;4959414;28;20862;-93
2022/10/10 05:10:42;;;;;;;10.48;5.95;;;;;;;;;;4954585;28;20069;-94
2022/10/10 05:13:11;;;;;;;14.98;6.85;;;;;;;;;;4971680;28;20511;-94
2022/10/10 05:15:37;;;;;;;13.93;6.22;;;;;;;;;;4984045;28;20371;-94
2022/10/10 05:18:04;;;;;;;13.02;7.03;;;;;;;;;;4968337;28;20049;-94
2022/10/10 05:20:30;;;;;;;12.82;6.38;;;;;;;;;;4965298;28;20483;-94
2022/10/10 05:22:56;;;;;;;11.90;6.38;;;;;;;;;;4965764;28;20512;-94
2022/10/10 05:25:22;;;;;;;18.33;7.13;;;;;;;;;;4966147;28;20849;-93
2022/10/10 05:27:49;;;;;;;11.27;6.68;;;;;;;;;;4971126;28;20062;-93
2022/10/10 05:30:15;;;;;;;13.88;7.07;;;;;;;;;;4953893;28;20034;-94
2022/10/10 05:32:44;;;;;;;12.63;7.20;;;;;;;;;;4962263;28;20056;-93
2022/10/10 05:35:16;;;;;;;9.18;6.22;;;;;;;;;;4979199;28;20065;-94
2022/10/10 05:37:43;;;;;;;16.70;6.53;;;;;;;;;;4952183;28;20117;-94
2022/10/10 05:40:09;;;;;;;16.25;7.03;;;;;;;;;;4952580;28;20038;-94
2022/10/10 05:42:35;;;;;;;15.07;7.13;;;;;;;;;;4967314;28;20149;-93
2022/10/10 05:45:01;;;;;;;12.27;6.50;;;;;;;;;;4953951;28;20034;-93
2022/10/10 05:47:27;;;;;;;12.10;6.20;;;;;;;;;;4953756;28;20502;-93
2022/10/10 05:49:54;;;;;;;15.40;7.35;;;;;;;;;;4967323;28;20035;-93
2022/10/10 05:52:20;;;;;;;15.63;6.43;;;;;;;;;;4966521;28;20054;-94
2022/10/10 05:54:46;;;;;;;13.98;6.70;;;;;;;;;;4954184;28;20042;-93
2022/10/10 05:57:12;;;;;;;12.13;6.93;;;;;;;;;;4952262;28;20034;-93
2022/10/10 05:59:38;;;;;;;16.45;6.70;;;;;;;;;;4954469;28;20470;-94
2022/10/10 06:02:04;;;;;;;13.48;6.65;;;;;;;;;;4969129;28;20417;-94
2022/10/10 06:04:30;;;;;;;15.75;7.40;;;;;;;;;;4965707;28;20031;-92
2022/10/10 06:06:57;;;;;;;19.35;7.53;;;;;;;;;;4950523;28;20896;-94
2022/10/10 06:09:23;;;;;;;18.13;6.38;;;;;;;;;;4962798;28;20089;-93
2022/10/10 06:11:49;;;;;;;16.08;7.50;;;;;;;;;;4964680;28;20038;-93
2022/10/10 06:14:15;;;;;;;14.20;7.47;;;;;;;;;;4968317;28;20137;-93
2022/10/10 06:16:44;;;;;;;12.02;6.88;;;;;;;;;;4962745;28;20073;-93
2022/10/10 06:19:10;;;;;;;15.23;7.55;;;;;;;;;;4959860;28;20029;-93
2022/10/10 06:21:36;;;;;;;13.20;6.68;;;;;;;;;;4959069;28;20069;-94
2022/10/10 06:24:02;;;;;;;16.27;7.53;;;;;;;;;;4960537;28;20054;-93
2022/10/10 06:26:28;;;;;;;10.43;6.22;;;;;;;;;;4969880;28;20486;-94
2022/10/10 06:28:54;;;;;;;16.73;7.47;;;;;;;;;;4958417;28;20113;-94
2022/10/10 06:31:20;;;;;;;16.13;7.60;;;;;;;;;;4951087;28;20413;-94
2022/10/10 06:33:48;;;;;;;18.10;8.27;;;;;;;;;;4965406;28;20070;-94
2022/10/10 06:36:14;;;;;;;13.20;7.40;;;;;;;;;;4950136;28;20502;-94
2022/10/10 06:38:42;;;;;;;12.07;6.85;;;;;;;;;;4958345;28;20033;-94
2022/10/10 06:41:09;;;;;;;16.10;6.90;;;;;;;;;;4964444;28;20106;-93
2022/10/10 06:43:35;;;;;;;21.92;6.22;;;;;;;;;;4964335;28;20596;-94
2022/10/10 06:46:01;;;;;;;11.25;7.00;;;;;;;;;;4967216;28;20367;-94
2022/10/10 06:48:33;;;;;;;9.25;4.65;;;;;;;;;;4962166;28;20073;-94
2022/10/10 06:51:01;;;;;;;10.65;5.80;;;;;;;;;;4963801;28;20089;-93
2022/10/10 06:53:27;;;;;;;14.27;6.15;;;;;;;;;;4963977;28;20036;-94
2022/10/10 06:55:54;;;;;;;12.95;6.10;;;;;;;;;;4962058;28;20049;-94
2022/10/10 06:58:21;;;;;;;10.32;5.97;;;;;;;;;;4952506;28;20042;-93
2022/10/10 07:00:58;;;;;;;15.23;6.10;;;;;;;;;;4971100;28;20027;-94
2022/10/10 07:03:24;;;;;;;13.30;5.88;;;;;;;;;;4972420;28;20232;-93
2022/10/10 07:05:55;;;;;;;16.90;6.28;;;;;;;;;;4968959;28;20121;-93
2022/10/10 07:08:22;;;;;;;9.55;5.13;;;;;;;;;;4967026;28;20035;-93
2022/10/10 07:10:48;;;;;;;9.65;6.13;;;;;;;;;;4971946;28;20038;-94
2022/10/10 07:13:14;;;;;;;15.77;6.28;;;;;;;;;;4966101;28;20509;-94
2022/10/10 07:15:46;;;;;;;10.82;5.97;;;;;;;;;;4968648;28;20090;-93
2022/10/10 07:18:13;;;;;;;11.77;5.57;;;;;;;;;;4980638;28;20110;-95
2022/10/10 07:20:39;;;;;;;15.30;6.43;;;;;;;;;;4968447;28;20034;-94
2022/10/10 07:23:05;;;;;;;16.63;8.35;;;;;;;;;;4968940;28;20026;-94
2022/10/10 07:25:31;;;;;;;12.43;6.05;;;;;;;;;;4968872;28;20038;-94
2022/10/10 07:27:58;;;;;;;20.15;5.55;;;;;;;;;;4983805;28;20077;-93
2022/10/10 07:30:24;;;;;;;12.88;5.40;;;;;;;;;;4953358;28;20482;-94
2022/10/10 07:32:52;;;;;;;13.00;6.43;;;;;;;;;;4967878;28;20466;-94
2022/10/10 07:35:19;;;;;;;17.33;5.47;;;;;;;;;;4963444;28;20353;-94
2022/10/10 07:37:45;;;;;;;11.23;6.07;;;;;;;;;;4968412;28;20074;-93
2022/10/10 07:40:11;;;;;;;17.58;6.47;;;;;;;;;;4972261;28;20505;-94
2022/10/10 07:42:37;;;;;;;13.38;5.40;;;;;;;;;;4968862;28;20031;-94
2022/10/10 07:45:04;;;;;;;13.10;6.63;;;;;;;;;;4956042;28;20034;-94
2022/10/10 07:47:30;;;;;;;19.45;6.45;;;;;;;;;;4967297;28;20209;-94
2022/10/10 07:49:56;;;;;;;10.68;6.05;;;;;;;;;;4968392;28;20065;-91
2022/10/10 07:52:22;;;;;;;12.55;6.50;;;;;;;;;;4954117;28;20042;-92
2022/10/10 07:54:48;;;;;;;12.93;6.10;;;;;;;;;;4967847;28;20269;-94
2022/10/10 07:57:14;;;;;;;18.27;6.43;;;;;;;;;;4965229;28;20034;-93
2022/10/10 07:59:44;;;;;;;8.77;5.55;;;;;;;;;;4946818;28;20714;-94
2022/10/10 08:02:10;;;;;;;11.30;6.45;;;;;;;;;;4972686;28;20129;-92
2022/10/10 08:04:36;;;;;;;12.05;6.20;;;;;;;;;;4952642;28;20041;-94
2022/10/10 08:07:02;;;;;;;11.70;5.75;;;;;;;;;;4964464;28;20121;-92
2022/10/10 08:09:28;;;;;;;12.73;5.95;;;;;;;;;;4953429;28;20030;-94
2022/10/10 08:11:54;;;;;;;10.93;5.82;;;;;;;;;;4963929;28;20140;-95
2022/10/10 08:14:20;;;;;;;9.32;5.53;;;;;;;;;;4953461;28;20035;-94
2022/10/10 08:16:46;;;;;;;11.88;5.78;;;;;;;;;;4943116;28;20449;-94
2022/10/10 08:19:12;;;;;;;10.75;5.90;;;;;;;;;;4966291;28;20034;-94
2022/10/10 08:21:39;;;;;;;11.15;5.70;;;;;;;;;;4966484;28;20038;-93
2022/10/10 08:24:05;;;;;;;9.07;5.57;;;;;;;;;;4987178;28;20040;-94
2022/10/10 08:26:34;;;;;;;10.18;5.55;;;;;;;;;;4955125;28;20057;-93
2022/10/10 08:29:00;;;;;;;13.13;5.68;;;;;;;;;;4966261;28;20034;-93
2022/10/10 08:31:26;;;;;;;12.13;5.68;;;;;;;;;;4955585;28;20093;-95
2022/10/10 08:33:52;;;;;;;10.82;5.55;;;;;;;;;;4968161;28;20030;-94
2022/10/10 08:36:20;;;;;;;12.35;6.05;;;;;;;;;;4967277;28;20058;-92
2022/10/10 08:38:46;;;;;;;9.90;5.53;;;;;;;;;;4973701;28;20030;-94
2022/10/10 08:41:31;;;;;;;8.48;5.40;;;;;;;;;;4953295;28;20113;-94
2022/10/10 08:44:00;;;;;;;13.88;5.82;;;;;;;;;;4972385;28;20031;-94
2022/10/10 08:46:38;;;;;;;8.65;5.40;;;;;;;;;;4974390;28;20037;-93
2022/10/10 08:49:12;;;;;;;10.68;5.82;;;;;;;;;;4969303;28;20030;-94
2022/10/10 08:51:39;;;;;;;9.35;5.38;;;;;;;;;;4969234;28;20050;-94
2022/10/10 08:54:06;;;;;;;20.83;6.10;;;;;;;;;;4968814;28;20058;-92
2022/10/10 08:56:34;;;;;;;11.10;6.10;;;;;;;;;;4969643;28;20481;-92
2022/10/10 08:59:04;;;;;;;11.85;5.35;;;;;;;;;;4984427;28;20026;-91
2022/10/10 09:01:34;;;;;;;13.55;6.10;;;;;;;;;;4972624;28;20026;-92
2022/10/10 09:04:01;;;;;;;10.65;5.50;;;;;;;;;;4947588;28;20039;-92
2022/10/10 09:06:33;;;;;;;12.82;5.70;;;;;;;;;;4935430;28;20058;-92
2022/10/10 09:09:07;;;;;;;10.05;5.75;;;;;;;;;;4952171;28;20066;-94
2022/10/10 09:11:51;;;;;;;13.65;6.03;;;;;;;;;;4948986;28;20534;-94
2022/10/10 09:14:29;;;;;;;10.88;5.90;;;;;;;;;;4965751;28;20062;-94
2022/10/10 09:17:04;;;;;;;8.75;5.80;;;;;;;;;;4957782;28;20059;-94
2022/10/10 09:19:30;;;;;;;;;;;;;;;;;;4945769;28;20035;-93
2022/10/10 09:21:59;;;;;;;11.55;5.68;;;;;;;;;;4955307;28;19923;-94
2022/10/10 09:24:31;;;;;;;13.15;6.15;;;;;;;;;;4964716;28;20114;-94
2022/10/10 09:27:04;;;;;;;9.05;5.40;;;;;;;;;;4953329;28;20034;-93
2022/10/10 09:29:34;;;;;;;11.50;6.28;;;;;;;;;;4950462;28;20042;-94
2022/10/10 09:32:03;;;;;;;10.57;5.60;;;;;;;;;;4952536;28;20406;-95
2022/10/10 09:34:35;;;;;;;13.23;5.93;;;;;;;;;;4949196;28;20227;-93
2022/10/10 09:37:02;;;;;;;11.55;5.95;;;;;;;;;;4949664;28;20019;-95
2022/10/10 09:39:35;;;;;;;11.00;5.50;;;;;;;;;;4953621;28;20030;-94
2022/10/10 09:42:03;;;;;;;13.82;5.90;;;;;;;;;;4950969;28;20027;-94
2022/10/10 09:44:31;;;;;;;11.38;5.95;;;;;;;;;;4947797;28;20037;-94
2022/10/10 09:46:58;;;;;;;13.75;6.18;;;;;;;;;;4951464;28;20030;-94
2022/10/10 09:49:25;;;;;;;10.50;5.80;;;;;;;;;;4964198;28;20350;-91
2022/10/10 09:51:51;;;;;;;10.02;5.90;;;;;;;;;;4949557;28;20117;-92
2022/10/10 09:54:18;;;;;;;11.60;5.78;;;;;;;;;;4934355;28;20039;-92
2022/10/10 09:56:53;;;;;;;11.05;5.90;;;;;;;;;;4968771;28;20046;-92
2022/10/10 09:59:38;;;;;;;13.90;6.00;;;;;;;;;;4949907;28;20023;-92
2022/10/10 10:02:14;;;;;;;14.50;7.05;;;;;;;;;;4969449;28;20055;-92
2022/10/10 10:04:41;;;;;;;10.68;6.60;;;;;;;;;;4985720;28;20034;-92
2022/10/10 10:07:30;;;;;;;13.75;6.13;;;;;;;;;;4971058;28;20045;-92
2022/10/10 10:10:03;;;;;;;10.88;6.05;;;;;;;;;;4968490;28;20026;-92
2022/10/10 10:12:45;;;;;;;15.00;5.95;;;;;;;;;;4972106;28;20041;-94
2022/10/10 10:15:29;;;;;;;11.15;6.28;;;;;;;;;;4968413;28;20039;-92
2022/10/10 10:18:11;;;;;;;13.30;4.72;;;;;;;;;;4972242;28;20027;-92
2022/10/10 10:20:42;;;;;;;8.80;5.32;;;;;;;;;;4982246;28;20046;-92
2022/10/10 10:23:32;;;;;;;11.82;5.95;;;;;;;;;;4968185;28;20088;-92
2022/10/10 10:26:06;;;;;;;15.32;5.68;;;;;;;;;;4982808;28;20026;-91
2022/10/10 10:28:39;;;;;;;10.82;5.60;;;;;;;;;;4969880;28;20597;-91
2022/10/10 10:31:18;;;;;;;12.45;5.75;;;;;;;;;;4974578;28;20030;-91
2022/10/10 10:34:02;;;;;;;16.15;5.85;;;;;;;;;;4970951;28;20332;-92
2022/10/10 10:36:38;;;;;;;18.65;6.47;;;;;;;;;;4984009;28;20153;-92
2022/10/10 10:39:22;;;;;;;8.55;5.55;;;;;;;;;;4973319;28;20030;-91
2022/10/10 10:41:54;;;;;;;21.65;6.85;;;;;;;;;;4970585;28;20036;-91
2022/10/10 10:44:24;;;;;;;11.10;6.28;;;;;;;;;;4987675;28;20026;-91
2022/10/10 10:46:56;;;;;;;10.93;6.47;;;;;;;;;;4969206;28;20034;-93
2022/10/10 10:49:35;;;;;;;10.95;5.88;;;;;;;;;;4976580;28;20041;-92
2022/10/10 10:52:14;;;;;;;10.93;5.90;;;;;;;;;;4971849;28;20094;-91
2022/10/10 10:54:59;;;;;;;7.85;5.03;;;;;;;;;;4971588;28;20509;-91
2022/10/10 10:57:26;;;;;;;10.80;5.32;;;;;;;;;;4987196;28;20045;-92
2022/10/10 11:00:07;;;;;;;9.30;5.25;;;;;;;;;;4971001;28;20398;-91
2022/10/10 11:02:59;;;;;;;12.45;5.03;;;;;;;;;;4990683;28;20073;-92
2022/10/10 11:05:40;;;;;;;16.67;5.53;;;;;;;;;;4987825;28;20042;-91
2022/10/10 11:08:06;;;;;;;11.07;5.63;;;;;;;;;;4976765;28;20034;-92
2022/10/10 11:10:55;;;;;;;11.80;5.55;;;;;;;;;;4968767;28;20026;-91
2022/10/10 11:13:49;;;;;;;7.63;5.10;;;;;;;;;;4975721;28;20030;-92
2022/10/10 11:16:20;;;;;;;14.57;5.57;;;;;;;;;;4967574;28;20196;-92
2022/10/10 11:19:07;;;;;;;10.95;5.43;;;;;;;;;;4972180;28;20679;-92
2022/10/10 11:21:33;;;;;;;;;;;;;;;;;;4972737;28;20080;-92
2022/10/10 11:24:03;;;;;;;14.48;5.95;;;;;;;;;;4967071;28;20279;-92
2022/10/10 11:26:35;;;;;;;11.35;5.35;;;;;;;;;;4965539;28;20030;-92
2022/10/10 11:29:24;;;;;;;13.93;5.28;;;;;;;;;;4982311;28;20027;-92
2022/10/10 11:31:53;;;;;;;10.80;5.32;;;;;;;;;;4974239;28;20271;-92
2022/10/10 11:34:21;;;;;;;19.90;5.25;;;;;;;;;;4971432;28;20122;-92
2022/10/10 11:36:48;;;;;;;16.10;6.15;;;;;;;;;;4973490;28;20053;-92
2022/10/10 11:39:18;;;;;;;13.95;5.57;;;;;;;;;;4976284;28;20080;-92
2022/10/10 11:41:47;;;;;;;15.20;7.18;;;;;;;;;;4971473;28;20038;-93
2022/10/10 11:44:13;;;;;;;17.40;6.97;;;;;;;;;;4968537;28;20061;-93
2022/10/10 11:46:42;;;;;;;15.35;6.28;;;;;;;;;;4972670;28;20035;-93
2022/10/10 11:49:12;;;;;;;14.65;6.38;;;;;;;;;;4969546;28;20118;-93
2022/10/10 11:51:59;;;;;;;13.45;5.90;;;;;;;;;;4974751;28;20035;-92
2022/10/10 11:54:28;;;;;;;22.05;6.95;;;;;;;;;;4970632;28;20037;-92
2022/10/10 11:56:58;;;;;;;13.82;6.72;;;;;;;;;;4974621;28;20663;-92
2022/10/10 11:59:27;;;;;;;23.48;6.55;;;;;;;;;;4987333;28;20058;-92
2022/10/10 12:01:56;;;;;;;14.43;6.38;;;;;;;;;;4971323;28;20037;-92
2022/10/10 12:04:22;;;;;;;18.25;7.80;;;;;;;;;;4950553;28;20053;-92
2022/10/10 12:07:06;;;;;;;13.73;5.57;;;;;;;;;;4949521;28;20062;-92
2022/10/10 12:09:35;;;;;;;15.00;7.50;;;;;;;;;;4964009;28;20035;-93
2022/10/10 12:12:12;;;;;;;14.48;7.22;;;;;;;;;;4947781;28;20063;-92
2022/10/10 12:14:40;;;;;;;17.98;7.45;;;;;;;;;;4950976;28;20131;-92
2022/10/10 12:17:17;;;;;;;24.35;6.75;;;;;;;;;;4950994;28;20027;-92
2022/10/10 12:19:46;;;;;;;18.00;7.40;;;;;;;;;;4953265;28;20439;-92
2022/10/10 12:22:21;;;;;;;11.73;6.20;;;;;;;;;;4954494;28;20360;-92
2022/10/10 12:25:06;;;;;;;14.98;6.55;;;;;;;;;;4951001;28;20065;-92
2022/10/10 12:27:51;;;;;;;14.55;7.63;;;;;;;;;;4950172;28;20037;-92
2022/10/10 12:30:20;;;;;;;10.80;4.95;;;;;;;;;;4951197;28;20031;-92
2022/10/10 12:32:52;;;;;;;68.18;8.55;;;;;;;;;;4951795;28;20399;-93
2022/10/10 12:35:30;;;;;;;16.83;8.10;;;;;;;;;;4946110;28;20019;-92
2022/10/10 12:38:06;;;;;;;14.52;7.70;;;;;;;;;;4967257;28;20446;-92
2022/10/10 12:40:33;;;;;;;18.70;8.10;;;;;;;;;;4955503;28;20525;-93
2022/10/10 12:43:01;;;;;;;14.48;7.88;;;;;;;;;;4946472;28;20415;-93
2022/10/10 12:45:30;;;;;;;16.05;7.65;;;;;;;;;;4950334;28;20494;-93
2022/10/10 12:48:04;;;;;;;22.58;9.30;;;;;;;;;;4953402;28;20135;-93
2022/10/10 12:50:33;;;;;;;16.75;8.05;;;;;;;;;;4961713;28;20123;-93
2022/10/10 12:53:02;;;;;;;15.02;7.93;;;;;;;;;;4947945;28;20031;-93
2022/10/10 12:55:39;;;;;;;27.23;9.02;;;;;;;;;;4946557;28;20394;-93
2022/10/10 12:58:09;;;;;;;22.73;10.10;;;;;;;;;;4963724;28;20026;-93
2022/10/10 13:00:36;;;;;;;25.05;9.60;;;;;;;;;;4955214;28;20034;-93
2022/10/10 13:03:04;;;;;;;26.73;9.52;;;;;;;;;;4962198;28;20525;-93
2022/10/10 13:05:33;;;;;;;23.15;10.60;;;;;;;;;;4969292;28;20092;-92
2022/10/10 13:08:01;;;;;;;24.48;10.30;;;;;;;;;;4970347;28;20058;-92
2022/10/10 13:10:27;;;;;;;16.77;6.78;;;;;;;;;;4972303;28;20042;-92
2022/10/10 13:13:15;;;;;;;20.50;10.23;;;;;;;;;;4965572;28;20398;-92
2022/10/10 13:15:50;;;;;;;20.70;9.55;;;;;;;;;;4982278;28;20049;-92
2022/10/10 13:18:31;;;;;;;18.92;9.02;;;;;;;;;;4969639;28;20034;-92
2022/10/10 13:20:57;;;;;;;24.00;9.93;;;;;;;;;;4964114;28;20027;-91
2022/10/10 13:23:23;;;;;;;27.55;10.48;;;;;;;;;;4951962;28;20371;-91
2022/10/10 13:25:49;;;;;;;20.92;10.13;;;;;;;;;;4966522;28;20410;-91
2022/10/10 13:28:17;;;;;;;27.98;10.95;;;;;;;;;;4963381;28;20101;-91
2022/10/10 13:30:43;;;;;;;21.95;11.02;;;;;;;;;;4966950;28;20026;-90
2022/10/10 13:33:25;;;;;;;21.85;10.05;;;;;;;;;;4962387;28;20034;-91
2022/10/10 13:35:51;;;;;;;22.40;10.40;;;;;;;;;;4962179;28;20372;-91
2022/10/10 13:38:20;;;;;;;28.80;10.00;;;;;;;;;;4966426;28;22668;-91
2022/10/10 13:40:46;;;;;;;26.10;11.35;;;;;;;;;;4963890;28;20034;-92
2022/10/10 13:43:16;;;;;;;20.90;10.43;;;;;;;;;;4950455;28;20031;-91
2022/10/10 13:45:50;;;;;;;21.33;8.65;;;;;;;;;;4951794;28;20066;-91
2022/10/10 13:48:17;;;;;;;14.80;6.63;;;;;;;;;;4964404;28;20098;-91
2022/10/10 13:50:43;;;;;;;5.72;3.08;;;;;;;;;;4963053;28;20068;-90
2022/10/10 13:53:33;;;;;;;4.45;1.50;;;;;;;;;;4960367;28;20066;-92
2022/10/10 13:55:59;;;;;;;5.68;1.40;;;;;;;;;;4961274;28;20044;-92
2022/10/10 13:58:30;;;;;;;12.90;1.70;;;;;;;;;;4965391;28;20031;-93
2022/10/10 14:00:57;;;;;;;9.23;1.70;;;;;;;;;;4965202;28;20116;-91
2022/10/10 14:03:24;;;;;;;3.65;0.77;;;;;;;;;;4982432;28;20080;-91
2022/10/10 14:05:50;;;;;;;7.40;1.90;;;;;;;;;;4976557;28;20033;-91
2022/10/10 14:08:20;;;;;;;12.35;1.23;;;;;;;;;;4979868;28;20561;-93
2022/10/10 14:11:07;;;;;;;11.55;1.80;;;;;;;;;;4967045;28;20034;-92
2022/10/10 14:13:34;;;;;;;7.75;1.38;;;;;;;;;;4977084;28;20033;-90
2022/10/10 14:16:11;;;;;;;7.78;1.40;;;;;;;;;;4964329;28;20046;-92
2022/10/10 14:18:37;;;;;;;6.30;1.42;;;;;;;;;;4980658;28;20034;-93
2022/10/10 14:21:04;;;;;;;8.18;1.42;;;;;;;;;;4949923;28;20430;-92
2022/10/10 14:23:30;;;;;;;9.73;1.88;;;;;;;;;;4965803;28;20534;-91
2022/10/10 14:25:57;;;;;;;15.52;1.75;;;;;;;;;;4964780;28;20184;-92
2022/10/10 14:28:25;;;;;;;6.65;1.75;;;;;;;;;;4966768;28;20590;-91
2022/10/10 14:30:51;;;;;;;9.50;1.40;;;;;;;;;;4968012;28;20102;-90
2022/10/10 14:33:19;;;;;;;10.90;2.45;;;;;;;;;;4966415;28;20042;-89
2022/10/10 14:35:45;;;;;;;11.40;2.83;;;;;;;;;;4965833;28;20181;-91
2022/10/10 14:38:12;;;;;;;13.65;1.92;;;;;;;;;;4969449;28;20037;-91
2022/10/10 14:40:40;;;;;;;6.75;1.50;;;;;;;;;;4970389;28;20134;-92
2022/10/10 14:43:06;;;;;;;6.05;1.20;;;;;;;;;;4967158;28;20032;-91
2022/10/10 14:45:32;;;;;;;11.68;1.98;;;;;;;;;;4950252;28;20034;-91
2022/10/10 14:47:58;;;;;;;15.02;2.05;;;;;;;;;;4965836;28;20475;-91